Houston, Texas
Traffic Map
Current Weather Conditions
Houston, Texas
Clear
Clear
75°
Feels Like: 75°
Wind Chill: 75° Ceiling: Unl
Heat Index: 75° Visibility: 10mi
Dew Point: 55° Wind: 3mph
Humidity: 50% Direction: 10° (N)
Pressure: 30.16in Gusts: 0mph
Raw Report DataKMCJ 201555Z AUTO 01003KT 10SM CLR 24/13 A3016 RMK AO1
Traffic Incident Summary
Active as of:
Severity:
Category:
InformationThere was an issue retrieving the traffic information for this location. Please try a different location or try again shortly.
Advertisements
At Last! Intellicast now available for iPhone and Android